sensor_id;sensor_type;location;lat;lon;timestamp;pressure;altitude;pressure_sealevel;temperature;humidity
64080;BME280;51042;49.696;10.808;2023-04-26T00:02:22;98441.72;;;2.83;100.00
64080;BME280;51042;49.696;10.808;2023-04-26T00:04:51;98447.91;;;2.84;100.00
64080;BME280;51042;49.696;10.808;2023-04-26T00:07:22;98439.00;;;2.87;100.00
64080;BME280;51042;49.696;10.808;2023-04-26T00:09:52;98442.50;;;2.84;100.00
64080;BME280;51042;49.696;10.808;2023-04-26T00:12:17;98437.47;;;2.82;100.00
64080;BME280;51042;49.696;10.808;2023-04-26T00:14:43;98443.66;;;2.79;100.00
64080;BME280;51042;49.696;10.808;2023-04-26T00:17:09;98443.25;;;2.74;100.00
64080;BME280;51042;49.696;10.808;2023-04-26T00:19:34;98444.78;;;2.75;100.00
64080;BME280;51042;49.696;10.808;2023-04-26T00:21:59;98449.00;;;2.62;100.00
64080;BME280;51042;49.696;10.808;2023-04-26T00:24:25;98448.19;;;2.58;100.00
64080;BME280;51042;49.696;10.808;2023-04-26T00:26:53;98446.25;;;2.55;100.00
64080;BME280;51042;49.696;10.808;2023-04-26T00:29:19;98445.84;;;2.53;100.00
64080;BME280;51042;49.696;10.808;2023-04-26T00:31:45;98448.88;;;2.40;100.00
64080;BME280;51042;49.696;10.808;2023-04-26T00:34:10;98446.16;;;2.37;100.00
64080;BME280;51042;49.696;10.808;2023-04-26T00:36:35;98438.78;;;2.30;100.00
64080;BME280;51042;49.696;10.808;2023-04-26T00:39:00;98436.44;;;2.25;100.00
64080;BME280;51042;49.696;10.808;2023-04-26T00:41:26;98447.22;;;2.22;100.00
64080;BME280;51042;49.696;10.808;2023-04-26T00:43:52;98442.22;;;2.20;100.00
64080;BME280;51042;49.696;10.808;2023-04-26T00:46:17;98442.56;;;2.15;100.00
64080;BME280;51042;49.696;10.808;2023-04-26T00:48:42;98447.97;;;2.15;100.00
64080;BME280;51042;49.696;10.808;2023-04-26T00:51:08;98447.97;;;2.12;100.00
64080;BME280;51042;49.696;10.808;2023-04-26T00:53:33;98442.53;;;2.12;100.00
64080;BME280;51042;49.696;10.808;2023-04-26T00:55:59;98433.22;;;2.09;100.00
64080;BME280;51042;49.696;10.808;2023-04-26T00:58:24;98438.22;;;2.00;100.00
64080;BME280;51042;49.696;10.808;2023-04-26T01:00:50;98440.91;;;1.96;100.00
64080;BME280;51042;49.696;10.808;2023-04-26T01:03:16;98442.44;;;1.94;100.00
64080;BME280;51042;49.696;10.808;2023-04-26T01:05:41;98438.94;;;1.93;100.00
64080;BME280;51042;49.696;10.808;2023-04-26T01:08:07;98443.94;;;1.91;100.00
64080;BME280;51042;49.696;10.808;2023-04-26T01:10:33;98446.28;;;1.89;100.00
64080;BME280;51042;49.696;10.808;2023-04-26T01:13:00;98440.03;;;1.85;100.00
64080;BME280;51042;49.696;10.808;2023-04-26T01:15:27;98440.44;;;1.84;100.00
64080;BME280;51042;49.696;10.808;2023-04-26T01:17:54;98452.03;;;1.84;100.00
64080;BME280;51042;49.696;10.808;2023-04-26T01:20:21;98445.06;;;1.83;100.00
64080;BME280;51042;49.696;10.808;2023-04-26T01:22:46;98445.06;;;1.83;100.00
64080;BME280;51042;49.696;10.808;2023-04-26T01:25:12;98448.91;;;1.79;100.00
64080;BME280;51042;49.696;10.808;2023-04-26T01:27:37;98452.34;;;1.76;100.00
64080;BME280;51042;49.696;10.808;2023-04-26T01:30:03;98454.63;;;1.70;100.00
64080;BME280;51042;49.696;10.808;2023-04-26T01:32:29;98452.66;;;1.67;100.00
64080;BME280;51042;49.696;10.808;2023-04-26T01:34:55;98457.69;;;1.65;100.00
64080;BME280;51042;49.696;10.808;2023-04-26T01:37:20;98461.53;;;1.64;100.00
64080;BME280;51042;49.696;10.808;2023-04-26T01:39:46;98457.31;;;1.67;100.00
64080;BME280;51042;49.696;10.808;2023-04-26T01:42:11;98455.75;;;1.66;100.00
64080;BME280;51042;49.696;10.808;2023-04-26T01:44:36;98466.22;;;1.71;100.00
64080;BME280;51042;49.696;10.808;2023-04-26T01:47:02;98469.72;;;1.75;100.00
64080;BME280;51042;49.696;10.808;2023-04-26T01:49:28;98470.47;;;1.72;100.00
64080;BME280;51042;49.696;10.808;2023-04-26T01:51:54;98470.84;;;1.70;100.00
64080;BME280;51042;49.696;10.808;2023-04-26T01:54:19;98467.34;;;1.66;100.00
64080;BME280;51042;49.696;10.808;2023-04-26T01:56:45;98460.72;;;1.60;100.00
64080;BME280;51042;49.696;10.808;2023-04-26T01:59:10;98469.56;;;1.53;100.00
64080;BME280;51042;49.696;10.808;2023-04-26T02:01:36;98471.44;;;1.49;100.00
64080;BME280;51042;49.696;10.808;2023-04-26T02:04:01;98471.41;;;1.46;100.00
64080;BME280;51042;49.696;10.808;2023-04-26T02:06:27;98479.50;;;1.42;100.00
64080;BME280;51042;49.696;10.808;2023-04-26T02:08:52;98478.72;;;1.42;100.00
64080;BME280;51042;49.696;10.808;2023-04-26T02:11:17;98469.84;;;1.45;100.00
64080;BME280;51042;49.696;10.808;2023-04-26T02:13:43;98479.16;;;1.47;100.00
64080;BME280;51042;49.696;10.808;2023-04-26T02:16:08;98470.28;;;1.50;100.00
64080;BME280;51042;49.696;10.808;2023-04-26T02:18:34;98468.38;;;1.51;100.00
64080;BME280;51042;49.696;10.808;2023-04-26T02:20:59;98464.50;;;1.48;100.00
64080;BME280;51042;49.696;10.808;2023-04-26T02:23:24;98461.72;;;1.41;100.00
64080;BME280;51042;49.696;10.808;2023-04-26T02:25:50;98457.38;;;1.33;100.00
64080;BME280;51042;49.696;10.808;2023-04-26T02:28:15;98461.56;;;1.27;100.00
64080;BME280;51042;49.696;10.808;2023-04-26T02:30:41;98461.91;;;1.22;100.00
64080;BME280;51042;49.696;10.808;2023-04-26T02:33:07;98465.75;;;1.17;100.00
64080;BME280;51042;49.696;10.808;2023-04-26T02:35:35;98462.19;;;1.10;100.00
64080;BME280;51042;49.696;10.808;2023-04-26T02:38:01;98462.53;;;1.08;100.00
64080;BME280;51042;49.696;10.808;2023-04-26T02:40:27;98465.94;;;1.02;100.00
64080;BME280;51042;49.696;10.808;2023-04-26T02:42:52;98456.66;;;0.99;100.00
64080;BME280;51042;49.696;10.808;2023-04-26T02:45:17;98463.25;;;1.02;100.00
64080;BME280;51042;49.696;10.808;2023-04-26T02:47:43;98454.78;;;1.03;100.00
64080;BME280;51042;49.696;10.808;2023-04-26T02:50:08;98459.78;;;1.01;100.00
64080;BME280;51042;49.696;10.808;2023-04-26T02:52:34;98460.16;;;1.00;100.00
64080;BME280;51042;49.696;10.808;2023-04-26T02:55:01;98465.88;;;0.95;100.00
64080;BME280;51042;49.696;10.808;2023-04-26T02:57:27;98466.63;;;0.92;100.00
64080;BME280;51042;49.696;10.808;2023-04-26T02:59:53;98475.06;;;0.90;100.00
64080;BME280;51042;49.696;10.808;2023-04-26T03:02:19;98473.13;;;0.87;100.00
64080;BME280;51042;49.696;10.808;2023-04-26T03:04:45;98475.41;;;0.85;100.00
64080;BME280;51042;49.696;10.808;2023-04-26T03:07:11;98471.91;;;0.81;100.00
64080;BME280;51042;49.696;10.808;2023-04-26T03:09:36;98482.69;;;0.81;100.00
64080;BME280;51042;49.696;10.808;2023-04-26T03:12:03;98476.06;;;0.75;100.00
64080;BME280;51042;49.696;10.808;2023-04-26T03:14:30;98474.88;;;0.72;100.00
64080;BME280;51042;49.696;10.808;2023-04-26T03:16:55;98480.25;;;0.69;100.00
64080;BME280;51042;49.696;10.808;2023-04-26T03:19:20;98476.72;;;0.65;100.00
64080;BME280;51042;49.696;10.808;2023-04-26T03:21:45;98485.19;;;0.63;100.00
64080;BME280;51042;49.696;10.808;2023-04-26T03:24:11;98474.25;;;0.53;100.00
64080;BME280;51042;49.696;10.808;2023-04-26T03:26:36;98480.72;;;0.48;100.00
64080;BME280;51042;49.696;10.808;2023-04-26T03:29:02;98487.59;;;0.42;100.00
64080;BME280;51042;49.696;10.808;2023-04-26T03:31:28;98492.06;;;0.31;100.00
64080;BME280;51042;49.696;10.808;2023-04-26T03:33:53;98489.31;;;0.24;100.00
64080;BME280;51042;49.696;10.808;2023-04-26T03:36:18;98488.56;;;0.27;100.00
64080;BME280;51042;49.696;10.808;2023-04-26T03:38:44;98489.69;;;0.26;100.00
64080;BME280;51042;49.696;10.808;2023-04-26T03:41:09;98490.91;;;0.28;100.00
64080;BME280;51042;49.696;10.808;2023-04-26T03:43:35;98490.47;;;0.26;100.00
64080;BME280;51042;49.696;10.808;2023-04-26T03:46:00;98497.00;;;0.25;100.00
64080;BME280;51042;49.696;10.808;2023-04-26T03:48:26;98501.22;;;0.23;100.00
64080;BME280;51042;49.696;10.808;2023-04-26T03:50:51;98495.41;;;0.21;100.00
64080;BME280;51042;49.696;10.808;2023-04-26T03:53:17;98498.88;;;0.21;100.00
64080;BME280;51042;49.696;10.808;2023-04-26T03:55:42;98500.81;;;0.21;100.00
64080;BME280;51042;49.696;10.808;2023-04-26T03:58:08;98488.06;;;0.18;100.00
64080;BME280;51042;49.696;10.808;2023-04-26T04:00:35;98497.28;;;0.17;100.00
64080;BME280;51042;49.696;10.808;2023-04-26T04:03:01;98505.72;;;0.15;100.00
64080;BME280;51042;49.696;10.808;2023-04-26T04:05:27;98493.75;;;0.13;100.00
64080;BME280;51042;49.696;10.808;2023-04-26T04:07:52;98499.53;;;0.11;100.00
64080;BME280;51042;49.696;10.808;2023-04-26T04:10:17;98498.75;;;0.11;100.00
64080;BME280;51042;49.696;10.808;2023-04-26T04:12:43;98499.53;;;0.11;100.00
64080;BME280;51042;49.696;10.808;2023-04-26T04:15:11;98496.81;;;0.11;100.00
64080;BME280;51042;49.696;10.808;2023-04-26T04:17:36;98504.59;;;0.16;100.00
64080;BME280;51042;49.696;10.808;2023-04-26T04:20:02;98497.69;;;0.19;100.00
64080;BME280;51042;49.696;10.808;2023-04-26T04:22:29;98510.03;;;0.20;100.00
64080;BME280;51042;49.696;10.808;2023-04-26T04:24:54;98501.53;;;0.18;100.00
64080;BME280;51042;49.696;10.808;2023-04-26T04:27:19;98513.88;;;0.19;100.00
64080;BME280;51042;49.696;10.808;2023-04-26T04:29:45;98520.94;;;0.27;100.00
64080;BME280;51042;49.696;10.808;2023-04-26T04:32:11;98518.81;;;0.39;100.00
64080;BME280;51042;49.696;10.808;2023-04-26T04:34:37;98518.91;;;0.47;100.00
64080;BME280;51042;49.696;10.808;2023-04-26T04:37:03;98527.50;;;0.56;100.00
64080;BME280;51042;49.696;10.808;2023-04-26T04:39:28;98519.09;;;0.61;100.00
64080;BME280;51042;49.696;10.808;2023-04-26T04:41:53;98523.53;;;0.76;100.00
64080;BME280;51042;49.696;10.808;2023-04-26T04:44:19;98524.00;;;1.52;100.00
64080;BME280;51042;49.696;10.808;2023-04-26T04:46:44;98521.97;;;3.13;100.00
64080;BME280;51042;49.696;10.808;2023-04-26T04:49:10;98520.09;;;4.62;95.41
64080;BME280;51042;49.696;10.808;2023-04-26T04:51:36;98522.34;;;6.20;82.24
64080;BME280;51042;49.696;10.808;2023-04-26T04:54:11;98519.06;;;7.45;74.45
64080;BME280;51042;49.696;10.808;2023-04-26T04:56:37;98523.38;;;8.19;67.86
64080;BME280;51042;49.696;10.808;2023-04-26T04:59:02;98529.28;;;7.64;68.99
64080;BME280;51042;49.696;10.808;2023-04-26T05:01:29;98530.75;;;7.15;70.60
64080;BME280;51042;49.696;10.808;2023-04-26T05:03:58;98529.19;;;7.98;68.73
64080;BME280;51042;49.696;10.808;2023-04-26T05:06:23;98535.41;;;8.91;63.72
64080;BME280;51042;49.696;10.808;2023-04-26T05:08:49;98530.03;;;9.79;60.75
64080;BME280;51042;49.696;10.808;2023-04-26T05:11:14;98526.09;;;10.61;57.47
64080;BME280;51042;49.696;10.808;2023-04-26T05:13:40;98534.06;;;10.07;57.36
64080;BME280;51042;49.696;10.808;2023-04-26T05:16:05;98549.06;;;9.51;59.41
64080;BME280;51042;49.696;10.808;2023-04-26T05:18:30;98547.00;;;8.99;60.15
64080;BME280;51042;49.696;10.808;2023-04-26T05:20:56;98549.06;;;9.51;60.75
64080;BME280;51042;49.696;10.808;2023-04-26T05:23:22;98552.78;;;10.12;58.68
64080;BME280;51042;49.696;10.808;2023-04-26T05:25:47;98540.44;;;11.65;54.28
64080;BME280;51042;49.696;10.808;2023-04-26T05:28:12;98547.97;;;12.75;51.56
64080;BME280;51042;49.696;10.808;2023-04-26T05:30:38;98547.25;;;13.39;49.27
64080;BME280;51042;49.696;10.808;2023-04-26T05:33:04;98553.13;;;12.73;50.65
64080;BME280;51042;49.696;10.808;2023-04-26T05:35:30;98548.41;;;11.75;52.06
64080;BME280;51042;49.696;10.808;2023-04-26T05:37:55;98557.03;;;9.25;58.30
64080;BME280;51042;49.696;10.808;2023-04-26T05:40:21;98560.94;;;8.85;62.61
64080;BME280;51042;49.696;10.808;2023-04-26T05:42:46;98560.59;;;10.30;58.15
64080;BME280;51042;49.696;10.808;2023-04-26T05:45:11;98553.47;;;12.02;53.83
64080;BME280;51042;49.696;10.808;2023-04-26T05:47:37;98559.75;;;13.31;50.65
64080;BME280;51042;49.696;10.808;2023-04-26T05:50:02;98559.84;;;14.11;48.19
64080;BME280;51042;49.696;10.808;2023-04-26T05:52:28;98571.81;;;14.66;47.28
64080;BME280;51042;49.696;10.808;2023-04-26T05:54:53;98573.19;;;15.44;45.78
64080;BME280;51042;49.696;10.808;2023-04-26T05:57:18;98573.34;;;14.09;47.70
64080;BME280;51042;49.696;10.808;2023-04-26T05:59:44;98572.09;;;13.70;49.44
64080;BME280;51042;49.696;10.808;2023-04-26T06:02:09;98569.69;;;13.81;49.47
64080;BME280;51042;49.696;10.808;2023-04-26T06:04:35;98578.56;;;14.56;47.73
64080;BME280;51042;49.696;10.808;2023-04-26T06:07:00;98578.16;;;15.31;46.17
64080;BME280;51042;49.696;10.808;2023-04-26T06:09:26;98581.63;;;15.77;45.07
64080;BME280;51042;49.696;10.808;2023-04-26T06:11:52;98581.94;;;13.80;46.60
64080;BME280;51042;49.696;10.808;2023-04-26T06:14:17;98592.75;;;9.58;55.76
64080;BME280;51042;49.696;10.808;2023-04-26T06:16:43;98590.91;;;7.68;64.04
64080;BME280;51042;49.696;10.808;2023-04-26T06:19:08;98591.06;;;6.86;70.87
64080;BME280;51042;49.696;10.808;2023-04-26T06:21:33;98594.56;;;6.46;71.84
64080;BME280;51042;49.696;10.808;2023-04-26T06:23:59;98589.09;;;5.98;74.97
64080;BME280;51042;49.696;10.808;2023-04-26T06:26:24;98589.09;;;5.98;75.53
64080;BME280;51042;49.696;10.808;2023-04-26T06:28:49;98583.78;;;5.69;76.16
64080;BME280;51042;49.696;10.808;2023-04-26T06:31:15;98592.50;;;5.40;78.22
64080;BME280;51042;49.696;10.808;2023-04-26T06:33:40;98588.19;;;5.46;79.43
64080;BME280;51042;49.696;10.808;2023-04-26T06:36:09;98592.88;;;5.38;81.24
64080;BME280;51042;49.696;10.808;2023-04-26T06:38:35;98597.50;;;5.52;80.79
64080;BME280;51042;49.696;10.808;2023-04-26T06:41:01;98597.38;;;5.77;79.34
64080;BME280;51042;49.696;10.808;2023-04-26T06:43:26;98585.72;;;5.72;76.51
64080;BME280;51042;49.696;10.808;2023-04-26T06:45:51;98584.88;;;5.79;76.53
64080;BME280;51042;49.696;10.808;2023-04-26T06:48:17;98579.75;;;5.99;76.70
64080;BME280;51042;49.696;10.808;2023-04-26T06:50:42;98587.25;;;5.77;77.14
64080;BME280;51042;49.696;10.808;2023-04-26T06:53:07;98591.06;;;5.87;76.37
64080;BME280;51042;49.696;10.808;2023-04-26T06:55:33;98594.88;;;6.07;75.16
64080;BME280;51042;49.696;10.808;2023-04-26T06:57:58;98592.63;;;5.84;76.20
64080;BME280;51042;49.696;10.808;2023-04-26T07:00:23;98590.13;;;6.18;74.51
64080;BME280;51042;49.696;10.808;2023-04-26T07:02:49;98577.00;;;6.50;72.83
64080;BME280;51042;49.696;10.808;2023-04-26T07:05:14;98586.50;;;6.76;72.61
64080;BME280;51042;49.696;10.808;2023-04-26T07:07:39;98584.63;;;7.04;71.67
64080;BME280;51042;49.696;10.808;2023-04-26T07:10:05;98600.69;;;6.98;69.85
64080;BME280;51042;49.696;10.808;2023-04-26T07:12:32;98588.06;;;7.15;68.69
64080;BME280;51042;49.696;10.808;2023-04-26T07:14:57;98583.34;;;7.15;69.19
64080;BME280;51042;49.696;10.808;2023-04-26T07:17:22;98578.91;;;7.28;67.75
64080;BME280;51042;49.696;10.808;2023-04-26T07:19:48;98587.34;;;7.07;68.57
64080;BME280;51042;49.696;10.808;2023-04-26T07:22:13;98578.59;;;7.23;68.25
64080;BME280;51042;49.696;10.808;2023-04-26T07:24:38;98588.28;;;7.27;67.37
64080;BME280;51042;49.696;10.808;2023-04-26T07:27:04;98579.38;;;7.54;66.22
64080;BME280;51042;49.696;10.808;2023-04-26T07:29:29;98590.63;;;7.59;65.58
64080;BME280;51042;49.696;10.808;2023-04-26T07:31:54;98584.97;;;7.73;64.38
64080;BME280;51042;49.696;10.808;2023-04-26T07:34:21;98581.72;;;8.36;63.78
64080;BME280;51042;49.696;10.808;2023-04-26T07:36:46;98577.66;;;8.90;60.12
64080;BME280;51042;49.696;10.808;2023-04-26T07:39:11;98578.22;;;9.21;58.91
64080;BME280;51042;49.696;10.808;2023-04-26T07:41:39;98585.81;;;9.53;57.53
64080;BME280;51042;49.696;10.808;2023-04-26T07:44:05;98586.69;;;9.66;55.31
64080;BME280;51042;49.696;10.808;2023-04-26T07:46:31;98583.03;;;9.73;56.80
64080;BME280;51042;49.696;10.808;2023-04-26T07:48:58;98581.28;;;10.15;56.18
64080;BME280;51042;49.696;10.808;2023-04-26T07:51:23;98581.94;;;9.51;55.99
64080;BME280;51042;49.696;10.808;2023-04-26T07:53:48;98585.88;;;8.67;58.40
64080;BME280;51042;49.696;10.808;2023-04-26T07:56:14;98583.41;;;8.26;60.91
64080;BME280;51042;49.696;10.808;2023-04-26T07:58:39;98592.34;;;8.03;59.62
64080;BME280;51042;49.696;10.808;2023-04-26T08:01:05;98585.06;;;7.93;59.45
64080;BME280;51042;49.696;10.808;2023-04-26T08:03:30;98586.19;;;8.23;57.56
64080;BME280;51042;49.696;10.808;2023-04-26T08:05:56;98585.56;;;8.85;56.89
64080;BME280;51042;49.696;10.808;2023-04-26T08:08:23;98585.84;;;9.69;55.23
64080;BME280;51042;49.696;10.808;2023-04-26T08:10:50;98592.84;;;10.42;52.70
64080;BME280;51042;49.696;10.808;2023-04-26T08:13:15;98589.88;;;10.82;52.94
64080;BME280;51042;49.696;10.808;2023-04-26T08:15:41;98594.59;;;11.10;51.37
64080;BME280;51042;49.696;10.808;2023-04-26T08:18:06;98594.16;;;10.67;51.22
64080;BME280;51042;49.696;10.808;2023-04-26T08:20:31;98591.00;;;10.68;52.62
64080;BME280;51042;49.696;10.808;2023-04-26T08:22:57;98583.91;;;10.99;51.07
64080;BME280;51042;49.696;10.808;2023-04-26T08:25:23;98589.09;;;10.81;50.63
64080;BME280;51042;49.696;10.808;2023-04-26T08:27:49;98589.13;;;10.65;49.19
64080;BME280;51042;49.696;10.808;2023-04-26T08:30:16;98573.50;;;10.13;50.12
64080;BME280;51042;49.696;10.808;2023-04-26T08:32:42;98576.88;;;9.49;51.03
64080;BME280;51042;49.696;10.808;2023-04-26T08:35:08;98586.63;;;9.70;51.91
64080;BME280;51042;49.696;10.808;2023-04-26T08:37:33;98586.63;;;10.71;51.24
64080;BME280;51042;49.696;10.808;2023-04-26T08:40:00;98579.13;;;10.87;51.35
64080;BME280;51042;49.696;10.808;2023-04-26T08:42:26;98583.38;;;10.27;51.29
64080;BME280;51042;49.696;10.808;2023-04-26T08:44:52;98583.56;;;10.20;52.86
64080;BME280;51042;49.696;10.808;2023-04-26T08:47:21;98585.63;;;10.32;53.10
64080;BME280;51042;49.696;10.808;2023-04-26T08:49:53;98581.94;;;10.39;51.71
64080;BME280;51042;49.696;10.808;2023-04-26T08:52:23;98579.72;;;9.98;52.50
64080;BME280;51042;49.696;10.808;2023-04-26T08:54:51;98580.63;;;10.43;52.68
64080;BME280;51042;49.696;10.808;2023-04-26T08:57:18;98583.75;;;10.90;50.26
64080;BME280;51042;49.696;10.808;2023-04-26T08:59:45;98579.47;;;10.89;50.42
64080;BME280;51042;49.696;10.808;2023-04-26T09:02:13;98576.91;;;11.40;48.57
64080;BME280;51042;49.696;10.808;2023-04-26T09:04:42;98569.66;;;11.46;47.47
64080;BME280;51042;49.696;10.808;2023-04-26T09:07:09;98574.03;;;11.98;45.03
64080;BME280;51042;49.696;10.808;2023-04-26T09:09:43;98571.38;;;10.70;47.34
64080;BME280;51042;49.696;10.808;2023-04-26T09:12:13;98570.91;;;11.58;47.43
64080;BME280;51042;49.696;10.808;2023-04-26T09:14:38;98561.56;;;12.56;46.08
64080;BME280;51042;49.696;10.808;2023-04-26T09:17:04;98571.47;;;12.88;44.34
64080;BME280;51042;49.696;10.808;2023-04-26T09:19:35;98563.00;;;12.48;43.57
64080;BME280;51042;49.696;10.808;2023-04-26T09:22:02;98571.72;;;11.29;43.87
64080;BME280;51042;49.696;10.808;2023-04-26T09:24:32;98569.84;;;10.20;45.21
64080;BME280;51042;49.696;10.808;2023-04-26T09:27:11;98566.72;;;9.66;46.62
64080;BME280;51042;49.696;10.808;2023-04-26T09:29:36;98561.25;;;9.66;46.67
64080;BME280;51042;49.696;10.808;2023-04-26T09:32:01;98563.38;;;10.10;45.19
64080;BME280;51042;49.696;10.808;2023-04-26T09:34:27;98561.94;;;10.71;43.71
64080;BME280;51042;49.696;10.808;2023-04-26T09:36:54;98550.69;;;11.64;42.82
64080;BME280;51042;49.696;10.808;2023-04-26T09:41:56;98554.19;;;12.41;41.73
64080;BME280;51042;49.696;10.808;2023-04-26T09:44:23;98549.63;;;11.87;40.46
64080;BME280;51042;49.696;10.808;2023-04-26T09:46:59;98561.34;;;11.50;41.35
64080;BME280;51042;49.696;10.808;2023-04-26T09:49:25;98552.91;;;11.28;41.95
64080;BME280;51042;49.696;10.808;2023-04-26T09:52:03;98559.97;;;11.96;38.94
64080;BME280;51042;49.696;10.808;2023-04-26T09:54:43;98550.72;;;12.02;38.80
64080;BME280;51042;49.696;10.808;2023-04-26T09:57:10;98553.09;;;13.07;38.86
64080;BME280;51042;49.696;10.808;2023-04-26T10:02:21;98552.28;;;13.94;36.99
64080;BME280;51042;49.696;10.808;2023-04-26T10:04:49;98553.69;;;12.20;40.30
64080;BME280;51042;49.696;10.808;2023-04-26T10:07:18;98552.34;;;11.74;38.10
64080;BME280;51042;49.696;10.808;2023-04-26T10:09:45;98558.00;;;10.39;40.14
64080;BME280;51042;49.696;10.808;2023-04-26T10:12:11;98554.94;;;10.21;40.80
64080;BME280;51042;49.696;10.808;2023-04-26T10:14:38;98549.94;;;10.32;40.90
64080;BME280;51042;49.696;10.808;2023-04-26T10:17:04;98547.56;;;10.79;41.60
64080;BME280;51042;49.696;10.808;2023-04-26T10:19:31;98551.09;;;10.80;41.32
64080;BME280;51042;49.696;10.808;2023-04-26T10:21:59;98547.44;;;10.99;41.47
64080;BME280;51042;49.696;10.808;2023-04-26T10:24:34;98553.50;;;11.35;42.36
64080;BME280;51042;49.696;10.808;2023-04-26T10:27:00;98553.34;;;11.80;40.26
64080;BME280;51042;49.696;10.808;2023-04-26T10:30:03;98547.06;;;11.80;39.86
64080;BME280;51042;49.696;10.808;2023-04-26T10:32:22;98540.59;;;12.12;38.94
64080;BME280;51042;49.696;10.808;2023-04-26T10:38:07;98550.88;;;11.57;40.55
64080;BME280;51042;49.696;10.808;2023-04-26T10:40:34;98557.31;;;10.51;42.31
64080;BME280;51042;49.696;10.808;2023-04-26T10:45:34;98542.53;;;10.61;41.27
64080;BME280;51042;49.696;10.808;2023-04-26T10:48:12;98548.22;;;10.71;40.97
64080;BME280;51042;49.696;10.808;2023-04-26T10:58:47;98540.41;;;10.98;42.24
64080;BME280;51042;49.696;10.808;2023-04-26T11:06:22;98535.03;;;12.84;41.08
64080;BME280;51042;49.696;10.808;2023-04-26T11:08:48;98530.00;;;13.04;40.54
64080;BME280;51042;49.696;10.808;2023-04-26T11:11:15;98531.25;;;12.09;40.12
64080;BME280;51042;49.696;10.808;2023-04-26T11:13:43;98534.72;;;11.59;40.46
64080;BME280;51042;49.696;10.808;2023-04-26T11:16:09;98524.56;;;11.18;42.90
64080;BME280;51042;49.696;10.808;2023-04-26T11:18:37;98533.88;;;11.21;42.88
64080;BME280;51042;49.696;10.808;2023-04-26T11:21:03;98534.84;;;11.68;43.08
64080;BME280;51042;49.696;10.808;2023-04-26T11:23:30;98525.84;;;11.93;42.36
64080;BME280;51042;49.696;10.808;2023-04-26T11:25:58;98522.75;;;12.16;41.97
64080;BME280;51042;49.696;10.808;2023-04-26T11:28:26;98516.88;;;12.40;41.98
64080;BME280;51042;49.696;10.808;2023-04-26T11:30:52;98520.03;;;13.07;40.72
64080;BME280;51042;49.696;10.808;2023-04-26T11:33:18;98517.22;;;13.41;38.46
64080;BME280;51042;49.696;10.808;2023-04-26T11:35:46;98511.47;;;13.88;38.06
64080;BME280;51042;49.696;10.808;2023-04-26T11:38:13;98508.84;;;14.34;37.84
64080;BME280;51042;49.696;10.808;2023-04-26T11:40:39;98507.53;;;14.93;36.50
64080;BME280;51042;49.696;10.808;2023-04-26T11:43:06;98501.56;;;15.64;36.17
64080;BME280;51042;49.696;10.808;2023-04-26T11:45:33;98502.19;;;15.50;36.64
64080;BME280;51042;49.696;10.808;2023-04-26T11:48:04;98496.63;;;15.68;35.18
64080;BME280;51042;49.696;10.808;2023-04-26T11:50:33;98504.75;;;15.11;36.49
64080;BME280;51042;49.696;10.808;2023-04-26T11:53:00;98500.94;;;14.63;36.68
64080;BME280;51042;49.696;10.808;2023-04-26T11:55:29;98494.97;;;13.58;37.75
64080;BME280;51042;49.696;10.808;2023-04-26T11:58:00;98505.31;;;13.75;37.91
64080;BME280;51042;49.696;10.808;2023-04-26T12:00:36;98509.03;;;13.29;38.25
64080;BME280;51042;49.696;10.808;2023-04-26T12:03:05;98505.16;;;12.83;40.42
64080;BME280;51042;49.696;10.808;2023-04-26T12:05:34;98502.59;;;12.66;39.20
64080;BME280;51042;49.696;10.808;2023-04-26T12:07:59;98497.38;;;13.03;39.28
64080;BME280;51042;49.696;10.808;2023-04-26T12:10:25;98497.44;;;12.90;39.56
64080;BME280;51042;49.696;10.808;2023-04-26T12:12:55;98501.84;;;13.09;38.74
64080;BME280;51042;49.696;10.808;2023-04-26T12:15:23;98493.91;;;14.13;37.31
64080;BME280;51042;49.696;10.808;2023-04-26T12:17:53;98499.88;;;13.63;36.89
64080;BME280;51042;49.696;10.808;2023-04-26T12:20:27;98504.00;;;13.58;36.60
64080;BME280;51042;49.696;10.808;2023-04-26T12:22:57;98500.84;;;13.78;38.64
64080;BME280;51042;49.696;10.808;2023-04-26T12:25:23;98497.94;;;14.30;37.16
64080;BME280;51042;49.696;10.808;2023-04-26T12:27:48;98499.75;;;12.23;37.65
64080;BME280;51042;49.696;10.808;2023-04-26T12:30:14;98489.56;;;13.01;40.38
64080;BME280;51042;49.696;10.808;2023-04-26T12:32:39;98498.00;;;14.40;38.25
64080;BME280;51042;49.696;10.808;2023-04-26T12:35:05;98487.97;;;14.24;36.07
64080;BME280;51042;49.696;10.808;2023-04-26T12:37:31;98490.88;;;14.20;36.38
64080;BME280;51042;49.696;10.808;2023-04-26T12:39:56;98492.00;;;14.50;36.31
64080;BME280;51042;49.696;10.808;2023-04-26T12:42:21;98481.44;;;14.58;36.11
64080;BME280;51042;49.696;10.808;2023-04-26T12:44:47;98484.81;;;14.53;37.02
64080;BME280;51042;49.696;10.808;2023-04-26T12:47:12;98479.09;;;15.02;37.76
64080;BME280;51042;49.696;10.808;2023-04-26T12:49:37;98474.41;;;15.54;36.96
64080;BME280;51042;49.696;10.808;2023-04-26T12:52:03;98476.03;;;15.09;37.54
64080;BME280;51042;49.696;10.808;2023-04-26T12:54:28;98480.53;;;14.70;36.64
64080;BME280;51042;49.696;10.808;2023-04-26T12:56:53;98475.16;;;13.90;37.21
64080;BME280;51042;49.696;10.808;2023-04-26T12:59:18;98480.91;;;13.34;37.99
64080;BME280;51042;49.696;10.808;2023-04-26T13:01:44;98481.00;;;14.59;37.09
64080;BME280;51042;49.696;10.808;2023-04-26T13:04:09;98482.75;;;15.35;36.15
64080;BME280;51042;49.696;10.808;2023-04-26T13:06:35;98468.81;;;15.72;35.14
64080;BME280;51042;49.696;10.808;2023-04-26T13:09:00;98469.56;;;16.05;34.99
64080;BME280;51042;49.696;10.808;2023-04-26T13:11:25;98471.84;;;15.83;35.17
64080;BME280;51042;49.696;10.808;2023-04-26T13:13:51;98476.44;;;15.35;35.70